Time;durP1;ratioP1;P1;durP2;ratioP2;P2;SDS_P1;SDS_P2;PMS_P1;PMS_P2;Temp;Humidity;BMP_temperature;BMP_pressure;BME280_temperature;BME280_humidity;BME280_pressure;Samples;Min_cycle;Max_cycle;Signal;HPM_P1;HPM_P2
2023/03/24 00:00:43;;;;;;;14.80;6.28;;;11.60;99.90;;;;;;5095937;28;20443;-72
2023/03/24 00:03:09;;;;;;;13.90;7.15;;;11.60;99.90;;;;;;5096146;28;20032;-72
2023/03/24 00:05:35;;;;;;;13.55;6.35;;;11.50;99.90;;;;;;5095822;28;20379;-71
2023/03/24 00:08:01;;;;;;;13.98;6.60;;;11.50;99.90;;;;;;5078060;28;20024;-72
2023/03/24 00:10:29;;;;;;;10.45;6.45;;;11.50;99.90;;;;;;5096089;28;20023;-71
2023/03/24 00:12:57;;;;;;;12.23;7.03;;;11.50;99.90;;;;;;5095902;28;20051;-71
2023/03/24 00:15:24;;;;;;;12.40;6.72;;;11.50;99.90;;;;;;5077773;28;20028;-71
2023/03/24 00:17:50;;;;;;;15.57;6.18;;;11.40;99.90;;;;;;5095607;28;20356;-71
2023/03/24 00:20:18;;;;;;;15.73;6.13;;;11.40;99.90;;;;;;5095958;28;20024;-71
2023/03/24 00:22:50;;;;;;;12.32;6.68;;;11.40;99.90;;;;;;5095844;28;20032;-72
2023/03/24 00:25:18;;;;;;;15.43;7.00;;;11.40;99.90;;;;;;5077330;28;20119;-72
2023/03/24 00:27:44;;;;;;;12.77;5.90;;;11.30;99.90;;;;;;5095397;28;20020;-71
2023/03/24 00:30:11;;;;;;;13.18;6.35;;;11.30;99.90;;;;;;5095729;28;20031;-71
2023/03/24 00:32:39;;;;;;;12.35;6.35;;;11.20;99.90;;;;;;5077348;28;20028;-72
2023/03/24 00:35:07;;;;;;;11.45;6.28;;;11.20;99.90;;;;;;5095101;28;20368;-71
2023/03/24 00:37:38;;;;;;;11.73;6.40;;;11.20;99.90;;;;;;5095536;28;20107;-72
2023/03/24 00:40:11;;;;;;;10.25;6.38;;;11.20;99.90;;;;;;5095225;28;20413;-72
2023/03/24 00:42:38;;;;;;;12.88;6.50;;;11.10;99.90;;;;;;5077373;28;20020;-72
2023/03/24 00:45:06;;;;;;;10.63;6.18;;;11.10;99.90;;;;;;5095108;28;20055;-72
2023/03/24 00:47:36;;;;;;;10.45;6.60;;;11.10;99.90;;;;;;5095064;28;20020;-72
2023/03/24 00:50:07;;;;;;;10.93;6.25;;;11.10;99.90;;;;;;5095374;28;20110;-72
2023/03/24 00:52:33;;;;;;;10.60;6.55;;;11.10;99.90;;;;;;5095531;28;20185;-72
2023/03/24 00:55:01;;;;;;;11.27;6.55;;;11.10;99.90;;;;;;5095028;28;20507;-71
2023/03/24 00:57:28;;;;;;;9.18;6.15;;;11.20;99.90;;;;;;5094838;28;20483;-72
2023/03/24 00:59:56;;;;;;;15.23;6.68;;;11.10;99.90;;;;;;5076955;28;20028;-71
2023/03/24 01:02:25;;;;;;;10.98;6.45;;;11.10;99.90;;;;;;5076831;28;20115;-72
2023/03/24 01:04:56;;;;;;;12.02;5.93;;;11.10;99.90;;;;;;5094985;28;20111;-71
2023/03/24 01:07:23;;;;;;;14.05;6.03;;;11.10;99.90;;;;;;5076768;28;20039;-71
2023/03/24 01:09:56;;;;;;;9.18;5.80;;;11.00;99.90;;;;;;5076412;28;20027;-72
2023/03/24 01:12:34;;;;;;;14.13;5.78;;;11.10;99.90;;;;;;5077270;28;20020;-71
2023/03/24 01:15:01;;;;;;;9.05;6.07;;;11.00;99.90;;;;;;5094707;28;20024;-72
2023/03/24 01:17:28;;;;;;;11.55;6.30;;;11.10;99.90;;;;;;5094729;28;20024;-72
2023/03/24 01:19:54;;;;;;;14.50;5.93;;;11.10;99.90;;;;;;5076600;28;20464;-72
2023/03/24 01:22:20;;;;;;;10.27;6.28;;;11.10;99.90;;;;;;5076461;28;20032;-72
2023/03/24 01:24:49;;;;;;;13.27;5.63;;;11.10;99.90;;;;;;5094721;28;20091;-71
2023/03/24 01:27:15;;;;;;;9.20;6.05;;;11.10;99.90;;;;;;5076405;28;20110;-72
2023/03/24 01:29:41;;;;;;;7.95;5.88;;;11.10;99.90;;;;;;5094231;28;20108;-72
2023/03/24 01:32:07;;;;;;;7.05;5.32;;;11.10;99.90;;;;;;5094507;28;20028;-72
2023/03/24 01:34:34;;;;;;;10.80;5.45;;;11.10;99.90;;;;;;5076478;28;20476;-72
2023/03/24 01:37:01;;;;;;;9.45;4.97;;;11.10;99.90;;;;;;5076626;28;20042;-72
2023/03/24 01:39:27;;;;;;;12.40;6.47;;;11.10;99.90;;;;;;5094829;28;20024;-72
2023/03/24 01:41:53;;;;;;;8.10;5.50;;;11.00;99.90;;;;;;5094561;28;20024;-72
2023/03/24 01:44:37;;;;;;;9.48;5.75;;;11.00;99.90;;;;;;5076614;28;20040;-72
2023/03/24 01:47:06;;;;;;;10.05;5.03;;;11.00;99.90;;;;;;5076373;28;20449;-71
2023/03/24 01:49:38;;;;;;;7.88;4.95;;;11.00;99.90;;;;;;5094704;28;20150;-72
2023/03/24 01:52:10;;;;;;;11.18;5.53;;;11.00;99.90;;;;;;5094313;28;20055;-71
2023/03/24 01:54:56;;;;;;;11.40;5.20;;;10.90;99.90;;;;;;5076680;28;20081;-72
2023/03/24 01:57:43;;;;;;;9.25;5.93;;;10.90;99.90;;;;;;5093582;28;20063;-72
2023/03/24 02:00:13;;;;;;;8.05;5.88;;;10.90;99.90;;;;;;5075683;28;20028;-72
2023/03/24 02:02:45;;;;;;;11.57;5.43;;;10.90;99.90;;;;;;5093695;28;20376;-72
2023/03/24 02:05:13;;;;;;;9.98;5.32;;;10.90;99.90;;;;;;5094010;28;20028;-71
2023/03/24 02:07:49;;;;;;;13.18;6.18;;;10.90;99.90;;;;;;5093726;28;20056;-72
2023/03/24 02:10:17;;;;;;;7.75;4.78;;;10.80;99.90;;;;;;5075621;28;20023;-72
2023/03/24 02:12:44;;;;;;;7.45;5.40;;;10.80;99.90;;;;;;5093866;28;20575;-72
2023/03/24 02:15:12;;;;;;;7.50;5.35;;;10.80;99.90;;;;;;5093766;28;20043;-72
2023/03/24 02:17:43;;;;;;;6.73;5.40;;;10.70;99.90;;;;;;5075762;28;20028;-72
2023/03/24 02:20:27;;;;;;;10.43;6.07;;;10.70;99.90;;;;;;5075725;28;20059;-72
2023/03/24 02:22:56;;;;;;;8.25;5.13;;;10.70;99.90;;;;;;5075719;28;20020;-72
2023/03/24 02:25:51;;;;;;;7.57;5.38;;;10.70;99.90;;;;;;5093821;28;20099;-71
2023/03/24 02:28:16;;;;;;;7.63;5.32;;;10.60;99.90;;;;;;5094175;28;20039;-71
2023/03/24 02:31:05;;;;;;;8.30;5.15;;;10.60;99.90;;;;;;5093573;28;20024;-72
2023/03/24 02:33:50;;;;;;;8.35;5.28;;;10.60;99.90;;;;;;5093238;28;20113;-72
2023/03/24 02:36:42;;;;;;;9.52;5.28;;;10.60;99.90;;;;;;5076137;28;20031;-72
2023/03/24 02:39:29;;;;;;;9.23;5.07;;;10.60;99.90;;;;;;5075628;28;20515;-72
2023/03/24 02:42:01;;;;;;;7.32;5.05;;;10.60;99.90;;;;;;5093714;28;20489;-72
2023/03/24 02:44:36;;;;;;;8.52;5.25;;;10.60;99.90;;;;;;5093898;28;20027;-72
2023/03/24 02:47:07;;;;;;;6.50;4.90;;;10.60;99.90;;;;;;5075587;28;20035;-72
2023/03/24 02:49:33;;;;;;;10.00;5.10;;;10.60;99.90;;;;;;5075526;28;20028;-72
2023/03/24 02:51:59;;;;;;;6.55;4.72;;;10.60;99.90;;;;;;5093392;28;20055;-72
2023/03/24 02:54:37;;;;;;;11.88;5.70;;;10.60;99.90;;;;;;5075715;28;20028;-72
2023/03/24 02:57:24;;;;;;;10.23;5.07;;;10.60;99.90;;;;;;5075502;28;20039;-72
2023/03/24 03:00:00;;;;;;;7.32;5.15;;;10.60;99.90;;;;;;5093552;28;20030;-72
2023/03/24 03:02:33;;;;;;;9.65;5.25;;;10.60;99.90;;;;;;5093233;28;20024;-72
2023/03/24 03:05:21;;;;;;;5.95;4.80;;;10.60;99.90;;;;;;5093741;28;20082;-71
2023/03/24 03:07:50;;;;;;;6.55;5.00;;;10.60;99.90;;;;;;5077269;28;20027;-71
2023/03/24 03:10:28;;;;;;;11.38;4.57;;;10.60;99.90;;;;;;5097258;28;20490;-72
2023/03/24 03:12:59;;;;;;;9.43;5.20;;;10.70;99.90;;;;;;5078938;28;20073;-72
2023/03/24 03:15:31;;;;;;;10.13;4.70;;;10.70;99.90;;;;;;5078967;28;20114;-72
2023/03/24 03:18:13;;;;;;;5.65;4.63;;;10.70;99.90;;;;;;5097156;28;20020;-72
2023/03/24 03:20:49;;;;;;;7.88;5.47;;;10.70;99.90;;;;;;5079170;28;20050;-71
2023/03/24 03:23:20;;;;;;;10.40;4.85;;;10.70;99.90;;;;;;5097029;28;20521;-72
2023/03/24 03:25:54;;;;;;;11.38;5.03;;;10.70;99.90;;;;;;5078766;28;20027;-72
2023/03/24 03:28:24;;;;;;;11.07;4.88;;;10.70;99.90;;;;;;5079002;28;20375;-72
2023/03/24 03:30:56;;;;;;;14.00;5.25;;;10.80;99.90;;;;;;5078714;28;20035;-72
2023/03/24 03:33:35;;;;;;;7.90;4.88;;;10.70;99.90;;;;;;5096916;28;20035;-72
2023/03/24 03:36:21;;;;;;;10.05;4.78;;;10.70;99.90;;;;;;5079165;28;20085;-72
2023/03/24 03:38:50;;;;;;;9.07;4.90;;;10.70;99.90;;;;;;5096527;28;20391;-72
2023/03/24 03:41:17;;;;;;;12.25;4.78;;;10.70;99.90;;;;;;5078486;28;20077;-72
2023/03/24 03:43:43;;;;;;;7.28;5.38;;;10.70;99.90;;;;;;5078358;28;20038;-72
2023/03/24 03:46:09;;;;;;;13.63;5.35;;;10.70;99.90;;;;;;5078425;28;20078;-72
2023/03/24 03:48:36;;;;;;;6.80;4.53;;;10.70;99.90;;;;;;5078507;28;20024;-72
2023/03/24 03:51:02;;;;;;;7.57;4.85;;;10.70;99.90;;;;;;5078211;28;20121;-72
2023/03/24 03:53:40;;;;;;;6.18;4.47;;;10.70;99.90;;;;;;5096296;28;20475;-72
2023/03/24 03:56:06;;;;;;;9.13;4.78;;;10.70;99.90;;;;;;5096687;28;20112;-72
2023/03/24 03:58:32;;;;;;;6.80;5.15;;;10.70;99.90;;;;;;5096551;28;20054;-72
2023/03/24 04:00:58;;;;;;;16.63;5.07;;;10.70;99.90;;;;;;5078083;28;20480;-72
2023/03/24 04:03:33;;;;;;;6.75;4.22;;;10.70;99.90;;;;;;5078006;28;20035;-72
2023/03/24 04:06:25;;;;;;;6.40;4.00;;;10.70;99.90;;;;;;5096169;28;20028;-72
2023/03/24 04:09:35;;;;;;;5.78;4.97;;;10.70;99.90;;;;;;5096274;28;20024;-72
2023/03/24 04:12:13;;;;;;;7.95;4.00;;;10.70;99.90;;;;;;5096386;28;20028;-72
2023/03/24 04:15:04;;;;;;;10.93;4.63;;;10.70;99.90;;;;;;5095696;28;20025;-72
2023/03/24 04:18:07;;;;;;;6.25;4.50;;;10.70;99.90;;;;;;5096242;28;20073;-72
2023/03/24 04:20:52;;;;;;;5.60;4.00;;;10.70;99.90;;;;;;5077547;28;20073;-72
2023/03/24 04:23:38;;;;;;;7.53;4.47;;;10.70;99.90;;;;;;5095552;28;20039;-72
2023/03/24 04:26:10;;;;;;;5.45;4.22;;;10.70;99.90;;;;;;5095940;28;20034;-72
2023/03/24 04:29:16;;;;;;;5.05;3.92;;;10.70;99.90;;;;;;5095675;28;20074;-72
2023/03/24 04:32:02;;;;;;;8.00;3.53;;;10.70;99.90;;;;;;5095705;28;20027;-72
2023/03/24 04:34:36;;;;;;;5.32;3.88;;;10.70;99.90;;;;;;5095628;28;20036;-72
2023/03/24 04:37:11;;;;;;;4.88;4.18;;;10.80;99.90;;;;;;5077495;28;20468;-72
2023/03/24 04:39:39;;;;;;;7.43;4.50;;;10.80;99.90;;;;;;5095527;28;20093;-72
2023/03/24 04:42:10;;;;;;;11.13;4.17;;;10.80;99.90;;;;;;5095530;28;20111;-72
2023/03/24 04:44:36;;;;;;;8.48;4.75;;;10.80;99.90;;;;;;5095554;28;20468;-72
2023/03/24 04:47:03;;;;;;;5.10;3.88;;;10.80;99.90;;;;;;5095119;28;20149;-72
2023/03/24 04:49:29;;;;;;;6.35;4.30;;;10.80;99.90;;;;;;5077034;28;20035;-72
2023/03/24 04:51:55;;;;;;;6.00;3.75;;;10.80;99.90;;;;;;5076831;28;20047;-72
2023/03/24 04:54:21;;;;;;;6.03;4.50;;;10.80;99.90;;;;;;5095120;28;20040;-71
2023/03/24 04:56:53;;;;;;;4.82;3.63;;;10.80;99.90;;;;;;5076925;28;20463;-72
2023/03/24 04:59:20;;;;;;;13.07;4.90;;;10.80;99.90;;;;;;5076693;28;20030;-72
2023/03/24 05:01:48;;;;;;;9.57;4.32;;;10.80;99.90;;;;;;5076992;28;20055;-72
2023/03/24 05:04:22;;;;;;;6.32;4.40;;;10.80;99.90;;;;;;5076865;28;20032;-72
2023/03/24 05:06:51;;;;;;;7.97;5.13;;;10.80;99.90;;;;;;5095053;28;20032;-72
2023/03/24 05:09:20;;;;;;;6.88;4.22;;;10.90;99.90;;;;;;5076735;28;20460;-72
2023/03/24 05:11:45;;;;;;;8.70;4.47;;;10.90;99.90;;;;;;5095196;28;20035;-70
2023/03/24 05:14:11;;;;;;;8.73;4.45;;;10.80;99.90;;;;;;5095321;28;20359;-73
2023/03/24 05:16:37;;;;;;;11.98;4.80;;;10.80;99.90;;;;;;5094627;28;20024;-73
2023/03/24 05:19:03;;;;;;;10.00;4.72;;;10.80;99.90;;;;;;5094556;28;20050;-73
2023/03/24 05:21:29;;;;;;;7.75;4.80;;;10.80;99.90;;;;;;5076532;28;20024;-73
2023/03/24 05:23:55;;;;;;;8.18;4.45;;;10.80;99.90;;;;;;5094630;28;20032;-73
2023/03/24 05:26:21;;;;;;;14.18;5.55;;;10.80;99.90;;;;;;5077003;28;20035;-71
2023/03/24 05:28:46;;;;;;;10.65;4.88;;;10.80;99.90;;;;;;5094620;28;20024;-71
2023/03/24 05:31:12;;;;;;;6.57;4.15;;;10.90;99.90;;;;;;5093807;28;20028;-66
2023/03/24 05:33:38;;;;;;;14.60;4.82;;;10.90;99.90;;;;;;5094527;28;20468;-70
2023/03/24 05:36:04;;;;;;;8.95;4.97;;;10.90;99.90;;;;;;5076293;28;20028;-71
2023/03/24 05:38:30;;;;;;;6.55;5.05;;;10.90;99.90;;;;;;5076828;28;20020;-71
2023/03/24 05:40:59;;;;;;;9.35;5.10;;;10.90;99.90;;;;;;5094379;28;20051;-71
2023/03/24 05:43:25;;;;;;;7.22;5.43;;;11.00;99.90;;;;;;5076229;28;20028;-70
2023/03/24 05:45:51;;;;;;;11.05;5.68;;;11.10;99.90;;;;;;5093969;28;20407;-71
2023/03/24 05:48:17;;;;;;;12.63;5.60;;;11.20;99.90;;;;;;5093917;28;20024;-71
2023/03/24 05:50:43;;;;;;;17.13;6.10;;;11.20;99.90;;;;;;5093964;28;20103;-70
2023/03/24 05:53:08;;;;;;;12.07;5.28;;;11.30;99.90;;;;;;5076152;28;20024;-70
2023/03/24 05:55:34;;;;;;;12.23;6.40;;;11.40;99.90;;;;;;5075864;28;20034;-70
2023/03/24 05:58:00;;;;;;;14.38;6.70;;;11.50;99.90;;;;;;5094425;28;20069;-69
2023/03/24 06:00:29;;;;;;;21.33;8.40;;;11.50;99.90;;;;;;5075740;28;20539;-73
2023/03/24 06:02:55;;;;;;;16.95;7.22;;;11.60;99.90;;;;;;5075511;28;20038;-73
2023/03/24 06:05:22;;;;;;;14.90;6.30;;;11.70;99.90;;;;;;5093278;28;20024;-72
2023/03/24 06:07:47;;;;;;;14.13;7.53;;;11.70;99.90;;;;;;5093935;28;20024;-69
2023/03/24 06:10:17;;;;;;;14.10;6.88;;;11.80;99.90;;;;;;5075546;28;20020;-70
2023/03/24 06:12:43;;;;;;;;;;;11.90;99.90;;;;;;5075713;28;20020;-70
2023/03/24 06:15:09;;;;;;;12.38;6.70;;;12.00;99.90;;;;;;5093385;28;19953;-75
2023/03/24 06:17:41;;;;;;;16.00;7.43;;;12.10;99.90;;;;;;5093720;28;20067;-74
2023/03/24 06:20:13;;;;;;;23.25;8.80;;;12.10;99.90;;;;;;5093646;28;20349;-75
2023/03/24 06:22:39;;;;;;;15.38;8.90;;;12.20;99.90;;;;;;5075803;28;20028;-74
2023/03/24 06:25:05;;;;;;;20.92;10.77;;;12.30;99.90;;;;;;5093709;28;20391;-75
2023/03/24 06:27:31;;;;;;;24.17;10.13;;;12.30;99.90;;;;;;5075563;28;20032;-75
2023/03/24 06:29:57;;;;;;;21.63;11.45;;;12.40;99.90;;;;;;5075618;28;20448;-75
2023/03/24 06:32:22;;;;;;;21.88;10.32;;;12.40;99.90;;;;;;5075357;28;20114;-76
2023/03/24 06:34:48;;;;;;;19.42;11.35;;;12.40;99.90;;;;;;5075497;28;20028;-74
2023/03/24 06:37:14;;;;;;;19.13;11.05;;;12.50;99.90;;;;;;5075428;28;20028;-73
2023/03/24 06:39:40;;;;;;;20.52;11.63;;;12.50;99.90;;;;;;5093942;28;20029;-72
2023/03/24 06:42:06;;;;;;;18.60;12.02;;;12.60;99.90;;;;;;5076300;28;20035;-72
2023/03/24 06:44:32;;;;;;;26.42;12.23;;;12.70;99.90;;;;;;5079370;28;20028;-73
2023/03/24 06:46:59;;;;;;;21.23;11.30;;;12.80;99.90;;;;;;5097236;28;20024;-74
2023/03/24 06:49:25;;;;;;;22.10;12.00;;;12.90;99.90;;;;;;5097731;28;20024;-74
2023/03/24 06:51:51;;;;;;;24.63;11.60;;;12.90;99.90;;;;;;5097916;28;20055;-74
2023/03/24 06:54:16;;;;;;;18.77;11.70;;;13.00;99.90;;;;;;5097364;28;20372;-73
2023/03/24 06:56:42;;;;;;;20.95;12.45;;;13.10;99.90;;;;;;5079014;28;20052;-73
2023/03/24 06:59:09;;;;;;;20.13;12.18;;;13.20;99.90;;;;;;5097024;28;20028;-71
2023/03/24 07:01:36;;;;;;;22.92;13.20;;;13.30;99.90;;;;;;5079069;28;20384;-71
2023/03/24 07:04:03;;;;;;;26.42;12.02;;;13.40;99.90;;;;;;5079043;28;20042;-71
2023/03/24 07:06:28;;;;;;;19.02;12.88;;;13.40;99.90;;;;;;5097541;28;20028;-71
2023/03/24 07:08:58;;;;;;;22.35;13.15;;;13.50;99.90;;;;;;5096970;28;20028;-71
2023/03/24 07:11:24;;;;;;;22.05;12.98;;;14.60;99.90;;;;;;5078772;28;20387;-71
2023/03/24 07:13:49;;;;;;;24.95;14.10;;;13.60;99.90;;;;;;5097025;28;20028;-71
2023/03/24 07:16:15;;;;;;;28.02;12.52;;;13.80;99.90;;;;;;5079099;28;20078;-71
2023/03/24 07:18:41;;;;;;;19.17;13.27;;;13.90;99.90;;;;;;5078807;28;20459;-70
2023/03/24 07:21:07;;;;;;;23.13;12.93;;;13.90;99.90;;;;;;5078852;28;20024;-70
2023/03/24 07:23:33;;;;;;;21.80;14.15;;;14.00;99.90;;;;;;5079159;28;20030;-71
2023/03/24 07:25:59;;;;;;;23.35;12.93;;;14.20;99.90;;;;;;5096846;28;20445;-70
2023/03/24 07:28:24;;;;;;;24.70;13.18;;;14.40;99.90;;;;;;5096871;28;20024;-71
2023/03/24 07:30:50;;;;;;;18.38;12.70;;;14.50;99.90;;;;;;5096435;28;20442;-71
2023/03/24 07:33:16;;;;;;;29.45;13.68;;;14.60;99.90;;;;;;5096336;28;20086;-71
2023/03/24 07:35:42;;;;;;;18.70;13.00;;;14.70;99.90;;;;;;5096307;28;20468;-70
2023/03/24 07:38:09;;;;;;;20.52;13.48;;;14.70;99.90;;;;;;5096235;28;20020;-71
2023/03/24 07:40:34;;;;;;;20.52;12.82;;;14.70;99.90;;;;;;5078400;28;20024;-71
2023/03/24 07:43:04;;;;;;;22.67;13.48;;;14.70;99.90;;;;;;5096595;28;20107;-71
2023/03/24 07:45:30;;;;;;;;;;;14.70;99.90;;;;;;5078667;28;20020;-71
2023/03/24 07:48:00;;;;;;;21.95;12.70;;;14.70;99.90;;;;;;5096482;28;19904;-71
2023/03/24 07:50:27;;;;;;;20.65;13.07;;;14.70;99.90;;;;;;5096519;28;20054;-71
2023/03/24 07:52:53;;;;;;;16.63;12.88;;;14.70;99.90;;;;;;5095781;28;20547;-71
2023/03/24 07:55:19;;;;;;;22.08;12.68;;;14.80;99.90;;;;;;5095268;28;20036;-70
2023/03/24 07:57:46;;;;;;;19.02;11.48;;;14.90;99.90;;;;;;5078008;28;20051;-71
2023/03/24 08:00:31;;;;;;;18.85;13.70;;;15.10;99.90;;;;;;5095511;28;20036;-70
2023/03/24 08:02:58;;;;;;;20.38;13.15;;;15.10;99.90;;;;;;5078425;28;20119;-70
2023/03/24 08:05:28;;;;;;;18.90;12.48;;;15.10;99.90;;;;;;5078035;28;20031;-71
2023/03/24 08:07:56;;;;;;;17.45;12.38;;;15.20;99.90;;;;;;5096014;28;20020;-71
2023/03/24 08:10:28;;;;;;;20.85;12.27;;;15.20;99.90;;;;;;5096202;28;20024;-71
2023/03/24 08:12:54;;;;;;;18.90;11.77;;;15.40;99.90;;;;;;5096189;28;20405;-71
2023/03/24 08:15:21;;;;;;;21.92;12.63;;;15.60;99.90;;;;;;5095580;28;20515;-70
2023/03/24 08:17:48;;;;;;;18.08;12.60;;;15.80;99.90;;;;;;5095930;28;20063;-71
2023/03/24 08:20:14;;;;;;;20.38;12.10;;;15.90;99.30;;;;;;5077607;28;20047;-70
2023/03/24 08:22:41;;;;;;;17.20;11.75;;;15.90;99.10;;;;;;5077508;28;20460;-71
2023/03/24 08:25:09;;;;;;;17.88;12.02;;;15.90;99.30;;;;;;5077506;28;20558;-71
2023/03/24 08:27:38;;;;;;;18.38;11.65;;;16.00;99.20;;;;;;5077439;28;20157;-71
2023/03/24 08:30:07;;;;;;;14.75;10.88;;;16.10;98.60;;;;;;5077508;28;20123;-71
2023/03/24 08:32:33;;;;;;;18.20;11.80;;;16.30;98.30;;;;;;5077237;28;20077;-71
2023/03/24 08:35:00;;;;;;;18.15;12.18;;;16.50;97.50;;;;;;5077137;28;20460;-71
2023/03/24 08:37:25;;;;;;;19.08;12.63;;;16.70;96.50;;;;;;5095631;28;20082;-71
2023/03/24 08:39:51;;;;;;;15.63;11.75;;;16.70;96.20;;;;;;5077788;28;20452;-71
2023/03/24 08:42:17;;;;;;;21.95;11.88;;;16.90;95.70;;;;;;5077090;28;20035;-71
2023/03/24 08:44:43;;;;;;;18.38;10.70;;;16.90;95.40;;;;;;5077202;28;20028;-71
2023/03/24 08:47:09;;;;;;;17.90;10.77;;;16.90;95.20;;;;;;5077049;28;20020;-71
2023/03/24 08:49:34;;;;;;;13.50;10.85;;;17.00;94.80;;;;;;5095448;28;20110;-71
2023/03/24 08:52:00;;;;;;;14.30;10.40;;;17.00;94.60;;;;;;5095273;28;20128;-71
2023/03/24 08:54:26;;;;;;;18.70;10.40;;;17.00;94.40;;;;;;5077020;28;20031;-71
2023/03/24 08:56:52;;;;;;;23.05;11.20;;;17.20;94.20;;;;;;5094983;28;20031;-71
2023/03/24 08:59:18;;;;;;;17.80;10.10;;;17.50;93.30;;;;;;5094823;28;20028;-71
2023/03/24 09:01:43;;;;;;;12.25;9.65;;;17.80;92.80;;;;;;5076540;28;20024;-71
2023/03/24 09:04:09;;;;;;;14.90;10.35;;;18.10;92.00;;;;;;5094720;28;20031;-71
2023/03/24 09:06:35;;;;;;;16.60;10.20;;;18.40;90.80;;;;;;5094441;28;20035;-71
2023/03/24 09:09:01;;;;;;;21.15;10.68;;;18.50;90.20;;;;;;5076498;28;20032;-71
2023/03/24 09:11:27;;;;;;;17.98;9.93;;;18.80;89.00;;;;;;5076435;28;20038;-71
2023/03/24 09:13:52;;;;;;;15.43;9.65;;;19.10;87.00;;;;;;5076593;28;20036;-71
2023/03/24 09:16:18;;;;;;;17.42;10.25;;;19.40;84.70;;;;;;5094540;28;20028;-71
2023/03/24 09:18:45;;;;;;;10.35;9.07;;;19.50;83.40;;;;;;5094458;28;20129;-71
2023/03/24 09:21:11;;;;;;;12.52;9.95;;;19.40;81.90;;;;;;5094419;28;20028;-71
2023/03/24 09:23:37;;;;;;;13.65;9.25;;;19.40;82.20;;;;;;5094649;28;20028;-71
2023/03/24 09:26:03;;;;;;;13.45;9.50;;;19.70;81.00;;;;;;5076542;28;20036;-71
2023/03/24 09:28:29;;;;;;;16.50;9.63;;;19.90;79.20;;;;;;5094088;28;20031;-71
2023/03/24 09:31:03;;;;;;;16.65;9.70;;;20.00;77.20;;;;;;5076097;28;20107;-71
2023/03/24 09:33:29;;;;;;;17.48;9.93;;;19.80;76.90;;;;;;5094427;28;20028;-71
2023/03/24 09:35:57;;;;;;;14.50;10.05;;;19.60;77.40;;;;;;5076080;28;20039;-71
2023/03/24 09:38:23;;;;;;;13.52;9.85;;;19.50;77.60;;;;;;5075889;28;20475;-71
2023/03/24 09:40:54;;;;;;;15.57;9.60;;;19.70;77.70;;;;;;5094032;28;20024;-71
2023/03/24 09:44:03;;;;;;;16.58;10.20;;;20.20;76.10;;;;;;5094118;28;20026;-71
2023/03/24 09:46:41;;;;;;;;;;;20.20;74.40;;;;;;5065172;28;20078;-71
2023/03/24 09:49:15;;;;;;;13.55;9.38;;;20.30;74.00;;;;;;5094311;28;19904;-71
2023/03/24 09:51:43;;;;;;;20.75;9.85;;;20.10;74.10;;;;;;5075253;28;20052;-71
2023/03/24 09:54:21;;;;;;;21.47;9.87;;;20.10;74.40;;;;;;5075674;28;20028;-71
2023/03/24 09:56:48;;;;;;;15.95;9.30;;;20.10;74.60;;;;;;5094150;28;20594;-71
2023/03/24 09:59:36;;;;;;;14.32;9.65;;;20.10;74.70;;;;;;5075608;28;20364;-71
2023/03/24 10:02:13;;;;;;;17.50;11.27;;;20.30;75.00;;;;;;5093989;28;20028;-71
2023/03/24 10:04:39;;;;;;;38.60;21.27;;;20.60;74.10;;;;;;5094029;28;20046;-70
2023/03/24 10:07:31;;;;;;;18.02;11.43;;;20.80;73.60;;;;;;5093722;28;20104;-71
2023/03/24 10:09:59;;;;;;;20.45;12.68;;;21.10;71.70;;;;;;5075897;28;20063;-71
2023/03/24 10:12:47;;;;;;;17.88;11.68;;;21.20;71.80;;;;;;5093414;28;20476;-71
2023/03/24 10:15:37;;;;;;;15.68;12.15;;;21.40;70.80;;;;;;5093715;28;20066;-71
2023/03/24 10:18:18;;;;;;;17.58;11.75;;;21.40;70.30;;;;;;5074637;28;20078;-71
2023/03/24 10:21:13;;;;;;;18.00;13.02;;;21.30;70.10;;;;;;5093781;28;20042;-71
2023/03/24 10:24:02;;;;;;;20.00;12.75;;;20.90;70.70;;;;;;5093576;28;20589;-71
2023/03/24 10:26:38;;;;;;;18.35;12.10;;;23.00;72.00;;;;;;5093424;28;20028;-71
2023/03/24 10:29:28;;;;;;;21.75;13.30;;;20.80;71.20;;;;;;5093436;28;20357;-71
2023/03/24 10:32:03;;;;;;;16.42;12.55;;;20.70;71.40;;;;;;5075935;28;20114;-71
2023/03/24 10:34:32;;;;;;;20.38;12.63;;;20.70;71.20;;;;;;5093703;28;20062;-68
2023/03/24 10:37:01;;;;;;;21.95;13.25;;;21.00;71.30;;;;;;5093423;28;20616;-68
2023/03/24 10:39:29;;;;;;;18.50;13.05;;;21.10;70.40;;;;;;5093714;28;20043;-69
2023/03/24 10:41:57;;;;;;;17.17;13.35;;;21.10;70.40;;;;;;5093384;28;20039;-68
2023/03/24 10:44:23;;;;;;;20.40;13.77;;;21.10;69.50;;;;;;5093554;28;20046;-68
2023/03/24 10:46:53;;;;;;;24.38;13.25;;;20.90;70.10;;;;;;5075259;28;20020;-68
2023/03/24 10:49:21;;;;;;;19.58;12.88;;;20.70;70.60;;;;;;5075198;28;20158;-68
2023/03/24 10:52:00;;;;;;;18.98;13.80;;;20.90;70.80;;;;;;5093003;28;20125;-68
2023/03/24 10:54:28;;;;;;;23.70;13.65;;;20.90;70.20;;;;;;5075383;28;20024;-68
2023/03/24 10:56:56;;;;;;;21.73;14.10;;;20.80;70.40;;;;;;5075250;28;20028;-68
2023/03/24 10:59:45;;;;;;;20.17;13.80;;;20.80;70.30;;;;;;5093210;28;20047;-68
2023/03/24 11:02:43;;;;;;;;;;;20.80;70.40;;;;;;5062006;28;20032;-68
2023/03/24 11:05:12;;;;;;;21.60;13.77;;;20.90;70.70;;;;;;5059074;28;19907;-67
2023/03/24 11:07:41;;;;;;;24.15;14.35;;;21.00;69.50;;;;;;5075065;28;20372;-73
2023/03/24 11:10:09;;;;;;;21.60;14.38;;;20.90;69.40;;;;;;5093126;28;20430;-73
2023/03/24 11:12:38;;;;;;;18.38;13.63;;;20.90;69.10;;;;;;5093163;28;20107;-73
2023/03/24 11:15:22;;;;;;;21.85;13.85;;;21.00;69.40;;;;;;5092952;28;20032;-73
2023/03/24 11:17:53;;;;;;;19.17;13.07;;;21.10;69.20;;;;;;5074937;28;20101;-74
2023/03/24 11:20:24;;;;;;;19.27;13.45;;;21.10;68.70;;;;;;5092800;28;20416;-73
2023/03/24 11:23:01;;;;;;;21.33;13.07;;;21.30;68.30;;;;;;5074936;28;20380;-74
2023/03/24 11:25:30;;;;;;;16.30;12.82;;;21.30;67.70;;;;;;5092808;28;20050;-74
2023/03/24 11:27:59;;;;;;;16.90;13.27;;;21.30;67.60;;;;;;5074751;28;20033;-75
2023/03/24 11:30:47;;;;;;;19.55;13.93;;;21.40;67.40;;;;;;5077480;28;20028;-75
2023/03/24 11:33:27;;;;;;;16.13;13.15;;;21.20;67.40;;;;;;5095893;28;20043;-74
2023/03/24 11:35:53;;;;;;;22.00;13.35;;;21.20;67.90;;;;;;5078804;28;20085;-75
2023/03/24 11:38:29;;;;;;;17.58;12.52;;;21.20;67.80;;;;;;5078455;28;20034;-74
2023/03/24 11:40:57;;;;;;;20.63;12.88;;;21.30;67.60;;;;;;5096440;28;20031;-75
2023/03/24 11:43:24;;;;;;;19.00;12.17;;;21.60;66.90;;;;;;5096361;28;20020;-74
2023/03/24 11:46:02;;;;;;;19.67;13.07;;;21.70;66.00;;;;;;5096342;28;20020;-75
2023/03/24 11:48:51;;;;;;;17.48;12.88;;;21.80;65.40;;;;;;5096365;28;20082;-74
2023/03/24 11:51:24;;;;;;;23.23;14.40;;;21.70;65.40;;;;;;5077924;28;20521;-74
2023/03/24 11:53:54;;;;;;;16.67;13.43;;;21.50;65.20;;;;;;5096113;28;20115;-75
2023/03/24 11:56:39;;;;;;;21.73;12.75;;;21.40;65.60;;;;;;5096511;28;20395;-74
2023/03/24 11:59:30;;;;;;;17.38;11.95;;;21.80;65.00;;;;;;5096063;28;20464;-74
2023/03/24 12:02:24;;;;;;;15.93;11.98;;;22.10;64.20;;;;;;5096285;28;20357;-74
2023/03/24 12:05:10;;;;;;;15.32;11.95;;;22.30;63.30;;;;;;5096141;28;20026;-74
2023/03/24 12:07:52;;;;;;;17.83;12.45;;;22.80;61.90;;;;;;5077902;28;20028;-74
2023/03/24 12:10:20;;;;;;;17.58;12.13;;;22.80;61.60;;;;;;5077669;28;20024;-74
2023/03/24 12:13:13;;;;;;;20.25;13.55;;;22.60;61.40;;;;;;5077555;28;20050;-74
2023/03/24 12:16:03;;;;;;;17.77;11.60;;;22.70;61.10;;;;;;5089173;28;20043;-71
2023/03/24 12:19:00;;;;;;;20.50;12.23;;;22.80;60.60;;;;;;5085117;28;20024;-71
2023/03/24 12:21:56;;;;;;;19.33;11.68;;;22.60;60.60;;;;;;5068138;28;20030;-71
2023/03/24 12:24:31;;;;;;;16.38;11.40;;;23.10;60.00;;;;;;5066596;28;20047;-71
2023/03/24 12:27:00;;;;;;;18.00;11.55;;;23.20;59.00;;;;;;5066095;28;20039;-72
2023/03/24 12:29:49;;;;;;;17.38;11.55;;;22.90;59.20;;;;;;5068290;28;20375;-71
2023/03/24 12:32:29;;;;;;;;;;;22.60;59.30;;;;;;5057899;28;20111;-72
2023/03/24 12:35:05;;;;;;;14.68;11.20;;;22.70;59.70;;;;;;5069399;28;19912;-71
2023/03/24 12:37:39;;;;;;;19.40;11.40;;;23.30;59.00;;;;;;5095846;28;20142;-70
2023/03/24 12:40:29;;;;;;;17.58;10.55;;;24.20;57.60;;;;;;5076690;28;20052;-71
2023/03/24 12:43:06;;;;;;;23.33;11.40;;;24.70;55.30;;;;;;5077533;28;20391;-71
2023/03/24 12:45:57;;;;;;;14.70;10.90;;;25.20;53.90;;;;;;5095144;28;20028;-71
2023/03/24 12:48:37;;;;;;;18.70;10.98;;;25.40;52.30;;;;;;5077088;28;20110;-71
2023/03/24 12:51:09;;;;;;;15.35;9.48;;;26.00;51.90;;;;;;5076539;28;20506;-71
2023/03/24 12:53:40;;;;;;;14.48;9.93;;;26.60;50.50;;;;;;5095441;28;20054;-71
2023/03/24 12:56:21;;;;;;;15.00;9.55;;;26.40;49.70;;;;;;5077361;28;20031;-71
2023/03/24 12:58:50;;;;;;;10.80;8.90;;;25.80;50.20;;;;;;5095104;28;20043;-71